createdAt,value
2023-02-28T00:00:41.376Z,1.49
2023-02-28T00:01:41.305Z,1.47
2023-02-28T00:02:41.247Z,1.50
2023-02-28T00:03:41.211Z,1.49
2023-02-28T00:04:41.096Z,1.46
2023-02-28T00:05:41.028Z,1.47
2023-02-28T00:06:40.962Z,1.47
2023-02-28T00:07:40.885Z,1.50
2023-02-28T00:08:40.810Z,1.53
2023-02-28T00:09:40.738Z,1.39
2023-02-28T00:10:40.670Z,1.39
2023-02-28T00:11:40.599Z,1.39
2023-02-28T00:12:40.527Z,1.53
2023-02-28T00:13:40.455Z,1.50
2023-02-28T00:14:40.386Z,1.49
2023-02-28T00:15:40.347Z,1.61
2023-02-28T00:16:40.308Z,1.52
2023-02-28T00:17:40.172Z,1.64
2023-02-28T00:18:40.099Z,1.46
2023-02-28T00:19:40.029Z,1.61
2023-02-28T00:20:39.962Z,1.52
2023-02-28T00:21:39.888Z,1.47
2023-02-28T00:22:39.815Z,1.38
2023-02-28T00:23:39.754Z,1.39
2023-02-28T00:24:39.678Z,1.36
2023-02-28T00:25:39.607Z,1.31
2023-02-28T00:26:39.532Z,1.28
2023-02-28T00:27:39.458Z,1.24
2023-02-28T00:28:39.388Z,1.26
2023-02-28T00:29:39.323Z,1.32
2023-02-28T00:30:39.275Z,1.32
2023-02-28T00:31:39.177Z,1.34
2023-02-28T00:32:39.100Z,1.38
2023-02-28T00:33:39.047Z,1.39
2023-02-28T00:34:38.968Z,1.36
2023-02-28T00:35:38.969Z,1.28
2023-02-28T00:36:38.852Z,1.38
2023-02-28T00:37:38.749Z,1.31
2023-02-28T00:38:38.711Z,1.31
2023-02-28T00:39:38.606Z,1.29
2023-02-28T00:40:38.535Z,1.29
2023-02-28T00:41:38.460Z,1.16
2023-02-28T00:42:38.390Z,1.20
2023-02-28T00:43:38.332Z,1.25
2023-02-28T00:44:38.245Z,1.08
2023-02-28T00:45:38.173Z,1.02
2023-02-28T00:46:38.103Z,1.00
2023-02-28T00:47:38.032Z,1.04
2023-02-28T00:48:38.017Z,1.00
2023-02-28T00:49:37.894Z,0.96
2023-02-28T00:50:37.823Z,0.92
2023-02-28T00:51:37.744Z,1.00
2023-02-28T00:52:37.679Z,0.96
2023-02-28T00:53:37.671Z,1.04
2023-02-28T00:54:37.556Z,1.06
2023-02-28T00:55:37.517Z,0.99
2023-02-28T00:56:37.403Z,1.07
2023-02-28T00:57:37.324Z,1.06
2023-02-28T00:58:37.249Z,0.98
2023-02-28T00:59:37.172Z,0.99
2023-02-28T01:00:37.106Z,0.93
2023-02-28T01:01:37.059Z,0.89
2023-02-28T01:02:36.965Z,0.92
2023-02-28T01:03:36.913Z,1.04
2023-02-28T01:04:36.853Z,0.95
2023-02-28T01:05:36.747Z,0.98
2023-02-28T01:06:36.688Z,0.96
2023-02-28T01:07:36.606Z,0.96
2023-02-28T01:08:36.535Z,0.90
2023-02-28T01:09:36.472Z,0.84
2023-02-28T01:10:36.391Z,0.90
2023-02-28T01:11:36.322Z,0.92
2023-02-28T01:12:36.247Z,0.89
2023-02-28T01:13:36.176Z,0.81
2023-02-28T01:14:36.115Z,0.81
2023-02-28T01:15:36.066Z,0.75
2023-02-28T01:16:35.966Z,0.64
2023-02-28T01:17:35.899Z,0.75
2023-02-28T01:18:35.831Z,0.68
2023-02-28T01:19:35.746Z,0.60
2023-02-28T01:20:35.676Z,0.51
2023-02-28T01:21:35.606Z,0.62
2023-02-28T01:22:35.533Z,0.53
2023-02-28T01:23:35.458Z,0.45
2023-02-28T01:24:35.414Z,0.60
2023-02-28T01:25:35.337Z,0.45
2023-02-28T01:26:35.250Z,0.44
2023-02-28T01:27:35.181Z,0.41
2023-02-28T01:28:35.110Z,0.31
2023-02-28T01:29:35.036Z,0.30
2023-02-28T01:30:34.966Z,0.30
2023-02-28T01:31:35.031Z,0.26
2023-02-28T01:32:34.829Z,0.15
2023-02-28T01:33:34.754Z,0.13
2023-02-28T01:34:34.677Z,0.12
2023-02-28T01:35:34.646Z,0.16
2023-02-28T01:36:34.532Z,0.05
2023-02-28T01:37:34.469Z,-0.02
2023-02-28T01:38:34.392Z,-0.05
2023-02-28T01:39:34.327Z,-0.05
2023-02-28T01:40:34.250Z,-0.14
2023-02-28T01:41:34.177Z,-0.08
2023-02-28T01:42:34.103Z,-0.12
2023-02-28T01:43:34.033Z,-0.09
2023-02-28T01:44:33.963Z,-0.05
2023-02-28T01:45:33.890Z,-0.19
2023-02-28T01:46:33.901Z,-0.16
2023-02-28T01:47:33.747Z,-0.23
2023-02-28T01:48:33.682Z,-0.26
2023-02-28T01:49:33.607Z,-0.24
2023-02-28T01:50:33.529Z,-0.24
2023-02-28T01:51:33.461Z,-0.26
2023-02-28T01:52:33.388Z,-0.24
2023-02-28T01:53:33.323Z,-0.24
2023-02-28T01:54:33.243Z,-0.27
2023-02-28T01:55:33.184Z,-0.20
2023-02-28T01:56:33.099Z,-0.23
2023-02-28T01:57:33.024Z,-0.20
2023-02-28T01:58:32.951Z,-0.20
2023-02-28T01:59:32.885Z,-0.27
2023-02-28T02:00:32.813Z,-0.26
2023-02-28T02:01:32.896Z,-0.17
2023-02-28T02:02:32.735Z,-0.27
2023-02-28T02:03:32.598Z,-0.13
2023-02-28T02:04:32.545Z,-0.09
2023-02-28T02:05:32.452Z,-0.13
2023-02-28T02:06:32.383Z,-0.13
2023-02-28T02:07:32.311Z,-0.13
2023-02-28T02:08:32.274Z,-0.14
2023-02-28T02:09:32.211Z,-0.16
2023-02-28T02:10:32.150Z,-0.13
2023-02-28T02:11:32.093Z,-0.14
2023-02-28T02:12:31.951Z,-0.13
2023-02-28T02:13:31.886Z,-0.12
2023-02-28T02:14:31.801Z,-0.12
2023-02-28T02:15:31.740Z,-0.12
2023-02-28T02:16:31.667Z,-0.08
2023-02-28T02:17:31.590Z,-0.14
2023-02-28T02:18:31.515Z,-0.19
2023-02-28T02:19:31.447Z,-0.20
2023-02-28T02:20:31.378Z,-0.26
2023-02-28T02:21:31.625Z,-0.24
2023-02-28T02:22:31.232Z,-0.23
2023-02-28T02:23:31.160Z,-0.30
2023-02-28T02:24:31.153Z,-0.30
2023-02-28T02:25:31.015Z,-0.31
2023-02-28T02:26:30.938Z,-0.31
2023-02-28T02:27:30.873Z,-0.31
2023-02-28T02:28:30.802Z,-0.44
2023-02-28T02:29:30.743Z,-0.37
2023-02-28T02:30:30.652Z,-0.44
2023-02-28T02:31:31.134Z,-0.37
2023-02-28T02:32:30.543Z,-0.41
2023-02-28T02:33:30.443Z,-0.41
2023-02-28T02:34:30.366Z,-0.42
2023-02-28T02:35:30.345Z,-0.49
2023-02-28T02:36:30.235Z,-0.60
2023-02-28T02:37:30.166Z,-0.68
2023-02-28T02:38:30.078Z,-0.67
2023-02-28T02:39:30.023Z,-0.65
2023-02-28T02:40:29.933Z,-0.65
2023-02-28T02:41:30.170Z,-0.63
2023-02-28T02:42:29.789Z,-0.59
2023-02-28T02:43:29.717Z,-0.56
2023-02-28T02:44:29.649Z,-0.44
2023-02-28T02:45:29.585Z,-0.42
2023-02-28T02:46:29.526Z,-0.44
2023-02-28T02:47:29.435Z,-0.34
2023-02-28T02:48:29.464Z,-0.37
2023-02-28T02:49:29.286Z,-0.39
2023-02-28T02:50:29.213Z,-0.53
2023-02-28T02:51:29.476Z,-0.58
2023-02-28T02:52:29.080Z,-0.62
2023-02-28T02:53:29.000Z,-0.60
2023-02-28T02:54:28.930Z,-0.63
2023-02-28T02:55:28.857Z,-0.70
2023-02-28T02:56:28.780Z,-0.70
2023-02-28T02:57:28.716Z,-0.65
2023-02-28T02:58:28.644Z,-0.59
2023-02-28T02:59:28.603Z,-0.35
2023-02-28T03:00:28.527Z,-0.26
2023-02-28T03:01:28.988Z,-0.24
2023-02-28T03:02:28.356Z,-0.23
2023-02-28T03:03:28.305Z,-0.24
2023-02-28T03:04:28.204Z,-0.35
2023-02-28T03:05:28.132Z,-0.42
2023-02-28T03:06:28.065Z,-0.50
2023-02-28T03:07:27.988Z,-0.60
2023-02-28T03:08:27.912Z,-0.65
2023-02-28T03:09:27.851Z,-0.76
2023-02-28T03:10:27.768Z,-0.70
2023-02-28T03:11:28.031Z,-0.76
2023-02-28T03:12:27.650Z,-0.76
2023-02-28T03:13:27.555Z,-0.76
2023-02-28T03:14:27.477Z,-0.74
2023-02-28T03:15:27.406Z,-0.80
2023-02-28T03:16:27.353Z,-0.85
2023-02-28T03:17:27.272Z,-0.81
2023-02-28T03:18:27.193Z,-0.86
2023-02-28T03:19:27.183Z,-0.78
2023-02-28T03:20:27.069Z,-0.96
2023-02-28T03:21:27.360Z,-1.08
2023-02-28T03:22:26.994Z,-0.99
2023-02-28T03:23:26.838Z,-0.90
2023-02-28T03:24:26.771Z,-1.00
2023-02-28T03:25:26.688Z,-0.89
2023-02-28T03:26:26.618Z,-0.99
2023-02-28T03:27:26.549Z,-0.97
2023-02-28T03:28:26.472Z,-1.07
2023-02-28T03:29:26.403Z,-1.07
2023-02-28T03:30:26.335Z,-0.97
2023-02-28T03:31:26.318Z,-0.95
2023-02-28T03:32:26.219Z,-1.00
2023-02-28T03:33:26.113Z,-1.03
2023-02-28T03:34:26.042Z,-1.00
2023-02-28T03:35:25.992Z,-1.03
2023-02-28T03:36:25.902Z,-1.02
2023-02-28T03:37:25.853Z,-1.07
2023-02-28T03:38:25.756Z,-1.03
2023-02-28T03:39:25.694Z,-1.03
2023-02-28T03:40:25.601Z,-1.02
2023-02-28T03:41:25.531Z,-1.15
2023-02-28T03:42:25.462Z,-1.11
2023-02-28T03:43:25.384Z,-1.15
2023-02-28T03:44:25.328Z,-1.18
2023-02-28T03:45:25.249Z,-1.13
2023-02-28T03:46:25.173Z,-1.14
2023-02-28T03:47:25.097Z,-1.23
2023-02-28T03:48:25.024Z,-1.25
2023-02-28T03:49:24.955Z,-1.20
2023-02-28T03:50:24.878Z,-1.20
2023-02-28T03:51:24.882Z,-1.20
2023-02-28T03:52:24.736Z,-1.31
2023-02-28T03:53:24.668Z,-1.26
2023-02-28T03:54:24.590Z,-1.28
2023-02-28T03:55:24.520Z,-1.32
2023-02-28T03:56:24.442Z,-1.28
2023-02-28T03:57:24.382Z,-1.44
2023-02-28T03:58:24.296Z,-1.43
2023-02-28T03:59:24.226Z,-1.43
2023-02-28T04:00:25.388Z,-1.53
2023-02-28T04:01:24.143Z,-1.54
2023-02-28T04:02:24.008Z,-1.56
2023-02-28T04:03:23.962Z,-1.56
2023-02-28T04:04:23.975Z,-1.61
2023-02-28T04:05:23.794Z,-1.56
2023-02-28T04:06:23.719Z,-1.53
2023-02-28T04:07:23.645Z,-1.32
2023-02-28T04:08:23.573Z,-1.32
2023-02-28T04:09:23.501Z,-1.36
2023-02-28T04:10:23.426Z,-1.26
2023-02-28T04:11:23.353Z,-1.25
2023-02-28T04:12:23.284Z,-1.25
2023-02-28T04:13:23.213Z,-1.35
2023-02-28T04:14:23.158Z,-1.36
2023-02-28T04:15:23.067Z,-1.43
2023-02-28T04:16:34.433Z,-1.54
2023-02-28T04:17:22.937Z,-1.64
2023-02-28T04:18:22.844Z,-1.49
2023-02-28T04:19:22.783Z,-1.70
2023-02-28T04:20:22.697Z,-1.67
2023-02-28T04:21:22.642Z,-1.61
2023-02-28T04:22:22.551Z,-1.53
2023-02-28T04:23:22.494Z,-1.54
2023-02-28T04:24:22.406Z,-1.53
2023-02-28T04:25:22.350Z,-1.54
2023-02-28T04:26:22.265Z,-1.65
2023-02-28T04:27:22.192Z,-1.62
2023-02-28T04:28:22.127Z,-1.57
2023-02-28T04:29:22.045Z,-1.70
2023-02-28T04:30:22.108Z,-1.68
2023-02-28T04:31:21.923Z,-1.71
2023-02-28T04:32:22.614Z,-1.65
2023-02-28T04:33:21.759Z,-1.59
2023-02-28T04:34:21.680Z,-1.54
2023-02-28T04:35:21.609Z,-1.64
2023-02-28T04:36:21.538Z,-1.56
2023-02-28T04:37:21.484Z,-1.50
2023-02-28T04:38:21.389Z,-1.49
2023-02-28T04:39:21.322Z,-1.53
2023-02-28T04:40:21.244Z,-1.53
2023-02-28T04:41:21.173Z,-1.51
2023-02-28T04:42:21.105Z,-1.50
2023-02-28T04:43:21.029Z,-1.44
2023-02-28T04:44:20.953Z,-1.51
2023-02-28T04:45:20.894Z,-1.54
2023-02-28T04:46:20.821Z,-1.53
2023-02-28T04:47:20.737Z,-1.53
2023-02-28T04:48:22.337Z,-1.44
2023-02-28T04:49:20.588Z,-1.41
2023-02-28T04:50:20.513Z,-1.51
2023-02-28T04:51:20.463Z,-1.47
2023-02-28T04:52:20.371Z,-1.54
2023-02-28T04:53:20.303Z,-1.50
2023-02-28T04:54:20.238Z,-1.50
2023-02-28T04:55:20.155Z,-1.59
2023-02-28T04:56:20.120Z,-1.54
2023-02-28T04:57:20.016Z,-1.56
2023-02-28T04:58:19.936Z,-1.54
2023-02-28T04:59:19.876Z,-1.64
2023-02-28T05:00:19.788Z,-1.61
2023-02-28T05:01:19.722Z,-1.61
2023-02-28T05:02:19.657Z,-1.57
2023-02-28T05:03:19.571Z,-1.50
2023-02-28T05:04:19.512Z,-1.64
2023-02-28T05:05:19.438Z,-1.56
2023-02-28T05:06:19.438Z,-1.65
2023-02-28T05:07:19.278Z,-1.53
2023-02-28T05:08:19.204Z,-1.68
2023-02-28T05:09:19.135Z,-1.62
2023-02-28T05:10:19.057Z,-1.51
2023-02-28T05:11:18.984Z,-1.56
2023-02-28T05:12:18.914Z,-1.51
2023-02-28T05:13:18.840Z,-1.56
2023-02-28T05:14:18.768Z,-1.62
2023-02-28T05:15:18.699Z,-1.54
2023-02-28T05:16:18.705Z,-1.41
2023-02-28T05:17:18.550Z,-1.43
2023-02-28T05:18:18.470Z,-1.43
2023-02-28T05:19:18.402Z,-1.43
2023-02-28T05:20:18.338Z,-1.53
2023-02-28T05:21:18.266Z,-1.50
2023-02-28T05:22:18.182Z,-1.56
2023-02-28T05:23:18.111Z,-1.51
2023-02-28T05:24:18.050Z,-1.61
2023-02-28T05:25:17.967Z,-1.53
2023-02-28T05:26:17.890Z,-1.59
2023-02-28T05:27:17.821Z,-1.56
2023-02-28T05:28:17.744Z,-1.57
2023-02-28T05:29:17.677Z,-1.65
2023-02-28T05:30:17.596Z,-1.68
2023-02-28T05:31:17.612Z,-1.70
2023-02-28T05:32:17.495Z,-1.53
2023-02-28T05:33:17.383Z,-1.47
2023-02-28T05:34:17.303Z,-1.41
2023-02-28T05:35:17.240Z,-1.51
2023-02-28T05:36:17.162Z,-1.53
2023-02-28T05:37:17.090Z,-1.49
2023-02-28T05:38:17.017Z,-1.56
2023-02-28T05:39:16.969Z,-1.61
2023-02-28T05:40:16.940Z,-1.53
2023-02-28T05:41:16.818Z,-1.56
2023-02-28T05:42:16.735Z,-1.62
2023-02-28T05:43:16.699Z,-1.56
2023-02-28T05:44:16.584Z,-1.62
2023-02-28T05:45:16.513Z,-1.65
2023-02-28T05:46:16.434Z,-1.54
2023-02-28T05:47:16.379Z,-1.61
2023-02-28T05:48:16.284Z,-1.50
2023-02-28T05:49:16.212Z,-1.43
2023-02-28T05:50:16.140Z,-1.38
2023-02-28T05:51:16.070Z,-1.35
2023-02-28T05:52:15.991Z,-1.53
2023-02-28T05:53:15.922Z,-1.56
2023-02-28T05:54:15.848Z,-1.53
2023-02-28T05:55:15.778Z,-1.57
2023-02-28T05:56:15.715Z,-1.51
2023-02-28T05:57:24.339Z,-1.50
2023-02-28T05:58:15.557Z,-1.64
2023-02-28T05:59:15.582Z,-1.71
2023-02-28T06:00:15.416Z,-1.65
2023-02-28T06:01:15.340Z,-1.71
2023-02-28T06:02:15.304Z,-1.72
2023-02-28T06:03:15.224Z,-1.71
2023-02-28T06:04:30.419Z,-1.88
2023-02-28T06:05:15.074Z,-1.92
2023-02-28T06:06:14.971Z,-1.88
2023-02-28T06:07:14.908Z,-1.77
2023-02-28T06:08:14.835Z,-1.82
2023-02-28T06:09:14.764Z,-1.71
2023-02-28T06:10:14.682Z,-1.83
2023-02-28T06:11:14.624Z,-1.70
2023-02-28T06:12:14.539Z,-1.62
2023-02-28T06:13:14.501Z,-1.54
2023-02-28T06:14:14.391Z,-1.51
2023-02-28T06:15:14.342Z,-1.53
2023-02-28T06:16:14.287Z,-1.59
2023-02-28T06:17:14.186Z,-1.51
2023-02-28T06:18:14.098Z,-1.57
2023-02-28T06:19:14.028Z,-1.39
2023-02-28T06:20:14.014Z,-1.51
2023-02-28T06:21:13.884Z,-1.43
2023-02-28T06:22:13.808Z,-1.43
2023-02-28T06:23:13.736Z,-1.39
2023-02-28T06:24:13.672Z,-1.26
2023-02-28T06:25:13.598Z,-1.08
2023-02-28T06:26:13.516Z,-0.96
2023-02-28T06:27:13.456Z,-1.08
2023-02-28T06:28:13.373Z,-1.08
2023-02-28T06:29:13.304Z,-1.14
2023-02-28T06:30:13.228Z,-1.26
2023-02-28T06:31:13.257Z,-1.29
2023-02-28T06:32:13.106Z,-1.29
2023-02-28T06:33:13.010Z,-1.23
2023-02-28T06:34:12.950Z,-1.28
2023-02-28T06:35:12.868Z,-1.41
2023-02-28T06:36:12.790Z,-1.23
2023-02-28T06:37:12.718Z,-1.29
2023-02-28T06:38:12.649Z,-1.11
2023-02-28T06:39:12.571Z,-0.99
2023-02-28T06:40:12.506Z,-0.92
2023-02-28T06:41:12.441Z,-0.80
2023-02-28T06:42:12.393Z,-0.77
2023-02-28T06:43:12.288Z,-0.70
2023-02-28T06:44:12.238Z,-0.67
2023-02-28T06:45:12.145Z,-0.76
2023-02-28T06:46:12.111Z,-0.81
2023-02-28T06:47:11.993Z,-0.76
2023-02-28T06:48:11.917Z,-0.78
2023-02-28T06:49:11.842Z,-0.78
2023-02-28T06:50:11.777Z,-0.83
2023-02-28T06:51:11.703Z,-0.78
2023-02-28T06:52:11.628Z,-0.81
2023-02-28T06:53:11.558Z,-0.71
2023-02-28T06:54:11.483Z,-0.67
2023-02-28T06:55:11.420Z,-0.53
2023-02-28T06:56:11.341Z,-0.47
2023-02-28T06:57:11.273Z,-0.39
2023-02-28T06:58:11.221Z,-0.42
2023-02-28T06:59:11.116Z,-0.21
2023-02-28T07:00:11.047Z,-0.26
2023-02-28T07:01:11.047Z,-0.24
2023-02-28T07:02:10.903Z,-0.17
2023-02-28T07:03:10.831Z,-0.19
2023-02-28T07:04:10.761Z,-0.14
2023-02-28T07:05:10.705Z,-0.19
2023-02-28T07:06:10.609Z,-0.21
2023-02-28T07:07:10.554Z,-0.20
2023-02-28T07:08:10.469Z,-0.19
2023-02-28T07:09:10.401Z,-0.13
2023-02-28T07:10:10.319Z,-0.05
2023-02-28T07:11:10.257Z,-0.06
2023-02-28T07:12:10.178Z,0.01
2023-02-28T07:13:10.107Z,-0.05
2023-02-28T07:14:10.054Z,0.05
2023-02-28T07:15:09.962Z,0.10
2023-02-28T07:16:09.934Z,0.08
2023-02-28T07:17:09.815Z,0.12
2023-02-28T07:18:09.752Z,0.33
2023-02-28T07:19:09.673Z,0.52
2023-02-28T07:20:09.602Z,0.71
2023-02-28T07:21:09.529Z,0.96
2023-02-28T07:22:09.463Z,1.18
2023-02-28T07:23:09.390Z,1.38
2023-02-28T07:24:09.321Z,1.63
2023-02-28T07:25:09.249Z,1.68
2023-02-28T07:26:09.176Z,1.75
2023-02-28T07:27:09.104Z,1.77
2023-02-28T07:28:09.038Z,1.90
2023-02-28T07:29:08.965Z,2.19
2023-02-28T07:30:08.937Z,2.14
2023-02-28T07:31:08.875Z,2.30
2023-02-28T07:32:08.834Z,2.18
2023-02-28T07:33:08.688Z,2.19
2023-02-28T07:34:08.626Z,2.33
2023-02-28T07:35:08.584Z,2.45
2023-02-28T07:36:08.485Z,2.58
2023-02-28T07:37:08.425Z,2.58
2023-02-28T07:38:08.363Z,2.71
2023-02-28T07:39:08.286Z,2.90
2023-02-28T07:40:08.222Z,2.95
2023-02-28T07:41:08.148Z,3.05
2023-02-28T07:42:08.087Z,3.10
2023-02-28T07:43:08.016Z,3.01
2023-02-28T07:44:07.975Z,3.08
2023-02-28T07:45:07.884Z,3.19
2023-02-28T07:46:07.853Z,3.19
2023-02-28T07:47:07.755Z,3.02
2023-02-28T07:48:07.688Z,3.02
2023-02-28T07:49:07.624Z,2.89
2023-02-28T07:50:07.562Z,2.94
2023-02-28T07:51:07.503Z,2.95
2023-02-28T07:52:07.436Z,2.95
2023-02-28T07:53:07.363Z,3.22
2023-02-28T07:54:07.302Z,3.25
2023-02-28T07:55:07.232Z,3.31
2023-02-28T07:56:07.175Z,3.88
2023-02-28T07:57:07.103Z,4.44
2023-02-28T07:58:07.045Z,5.09
2023-02-28T07:59:06.972Z,5.22
2023-02-28T08:00:06.923Z,5.22
2023-02-28T08:01:06.859Z,5.05
2023-02-28T08:02:06.845Z,4.99
2023-02-28T08:03:06.714Z,4.69
2023-02-28T08:04:06.651Z,4.69
2023-02-28T08:05:06.635Z,4.61
2023-02-28T08:06:06.548Z,4.53
2023-02-28T08:07:06.466Z,4.44
2023-02-28T08:08:06.396Z,4.25
2023-02-28T08:09:06.331Z,4.20
2023-02-28T08:10:06.267Z,4.21
2023-02-28T08:11:06.209Z,4.20
2023-02-28T08:12:06.138Z,4.43
2023-02-28T08:13:06.081Z,4.59
2023-02-28T08:14:06.008Z,4.67
2023-02-28T08:15:05.951Z,4.69
2023-02-28T08:16:05.940Z,4.69
2023-02-28T08:17:05.827Z,4.61
2023-02-28T08:18:05.756Z,4.91
2023-02-28T08:19:05.692Z,5.08
2023-02-28T08:20:05.624Z,5.08
2023-02-28T08:21:05.561Z,5.17
2023-02-28T08:22:05.497Z,5.44
2023-02-28T08:23:05.436Z,5.75
2023-02-28T08:24:05.380Z,6.11
2023-02-28T08:25:05.311Z,6.42
2023-02-28T08:26:05.244Z,6.53
2023-02-28T08:27:05.179Z,6.28
2023-02-28T08:28:05.130Z,6.39
2023-02-28T08:29:05.055Z,6.53
2023-02-28T08:30:05.001Z,6.61
2023-02-28T08:31:04.936Z,6.79
2023-02-28T08:32:04.987Z,7.24
2023-02-28T08:33:04.865Z,7.11
2023-02-28T08:34:04.766Z,7.44
2023-02-28T08:35:04.707Z,7.82
2023-02-28T08:36:04.733Z,8.12
2023-02-28T08:37:04.579Z,8.65
2023-02-28T08:38:04.498Z,8.58
2023-02-28T08:39:04.446Z,8.55
2023-02-28T08:40:04.445Z,8.39
2023-02-28T08:41:04.366Z,8.76
2023-02-28T08:42:08.214Z,8.68
2023-02-28T08:43:04.212Z,8.76
2023-02-28T08:44:04.156Z,9.37
2023-02-28T08:45:04.076Z,9.34
2023-02-28T08:46:04.152Z,9.04
2023-02-28T08:47:03.952Z,8.93
2023-02-28T08:48:03.894Z,8.78
2023-02-28T08:49:03.830Z,8.58
2023-02-28T08:50:03.793Z,8.21
2023-02-28T08:51:08.274Z,8.39
2023-02-28T08:52:03.661Z,8.78
2023-02-28T08:53:03.599Z,9.15
2023-02-28T08:54:03.570Z,9.22
2023-02-28T08:55:03.496Z,9.60
2023-02-28T08:56:03.418Z,9.71
2023-02-28T08:57:03.357Z,9.88
2023-02-28T08:58:03.294Z,9.85
2023-02-28T08:59:03.238Z,9.85
2023-02-28T09:00:03.177Z,9.68
2023-02-28T09:01:03.154Z,9.89
2023-02-28T09:02:03.100Z,9.86
2023-02-28T09:03:03.018Z,9.50
2023-02-28T09:04:02.943Z,9.32
2023-02-28T09:05:02.888Z,9.40
2023-02-28T09:06:02.826Z,9.55
2023-02-28T09:07:02.765Z,9.68
2023-02-28T09:08:02.708Z,9.88
2023-02-28T09:09:02.697Z,10.43
2023-02-28T09:10:02.589Z,10.17
2023-02-28T09:11:03.495Z,10.18
2023-02-28T09:12:02.485Z,10.35
2023-02-28T09:13:02.412Z,10.28
2023-02-28T09:14:02.363Z,10.38
2023-02-28T09:15:02.311Z,10.16
2023-02-28T09:16:02.253Z,10.07
2023-02-28T09:17:02.291Z,10.47
2023-02-28T09:18:02.124Z,10.31
2023-02-28T09:19:02.064Z,10.49
2023-02-28T09:20:02.010Z,10.34
2023-02-28T09:21:01.953Z,9.83
2023-02-28T09:22:01.893Z,9.68
2023-02-28T09:23:01.838Z,9.86
2023-02-28T09:24:02.641Z,9.68
2023-02-28T09:25:01.720Z,9.85
2023-02-28T09:26:01.667Z,10.04
2023-02-28T09:27:05.248Z,10.18
2023-02-28T09:28:01.554Z,9.89
2023-02-28T09:29:01.488Z,9.92
2023-02-28T09:30:01.442Z,10.06
2023-02-28T09:31:01.447Z,10.18
2023-02-28T09:32:01.353Z,10.22
2023-02-28T09:33:01.269Z,10.25
2023-02-28T09:34:01.248Z,10.60
2023-02-28T09:35:01.144Z,10.52
2023-02-28T09:36:01.164Z,10.63
2023-02-28T09:37:01.023Z,10.69
2023-02-28T09:38:00.969Z,10.55
2023-02-28T09:39:00.908Z,10.18
2023-02-28T09:40:00.859Z,9.85
2023-02-28T09:41:00.791Z,9.63
2023-02-28T09:42:00.735Z,9.74
2023-02-28T09:43:00.682Z,9.74
2023-02-28T09:44:00.621Z,9.91
2023-02-28T09:45:00.568Z,9.32
2023-02-28T09:46:00.529Z,9.45
2023-02-28T09:47:00.454Z,10.06
2023-02-28T09:48:00.389Z,10.35
2023-02-28T09:49:00.337Z,10.31
2023-02-28T09:50:00.277Z,10.06
2023-02-28T09:51:00.214Z,10.18
2023-02-28T09:52:00.160Z,10.44
2023-02-28T09:53:00.108Z,10.46
2023-02-28T09:54:01.820Z,10.75
2023-02-28T09:54:59.980Z,10.47
2023-02-28T09:55:59.929Z,10.57
2023-02-28T09:56:59.869Z,10.17
2023-02-28T09:57:59.819Z,10.16
2023-02-28T09:58:59.766Z,9.88
2023-02-28T09:59:59.702Z,10.18
2023-02-28T10:00:59.724Z,10.13
2023-02-28T10:01:59.630Z,9.77
2023-02-28T10:02:59.539Z,9.48
2023-02-28T10:03:59.463Z,9.63
2023-02-28T10:04:59.444Z,9.85
2023-02-28T10:05:59.345Z,10.04
2023-02-28T10:06:59.280Z,10.47
2023-02-28T10:07:59.227Z,10.63
2023-02-28T10:08:59.186Z,10.66
2023-02-28T10:09:59.152Z,10.54
2023-02-28T10:10:59.048Z,10.62
2023-02-28T10:11:59.124Z,10.70
2023-02-28T10:12:58.949Z,11.16
2023-02-28T10:13:58.872Z,11.62
2023-02-28T10:14:58.900Z,11.57
2023-02-28T10:15:58.788Z,10.93
2023-02-28T10:16:58.711Z,10.80
2023-02-28T10:18:08.475Z,10.83
2023-02-28T10:18:58.606Z,11.01
2023-02-28T10:19:58.603Z,11.01
2023-02-28T10:20:58.471Z,10.98
2023-02-28T10:21:58.561Z,11.16
2023-02-28T10:22:58.354Z,11.20
2023-02-28T10:23:58.290Z,11.44
2023-02-28T10:24:58.241Z,11.20
2023-02-28T10:25:58.224Z,10.83
2023-02-28T10:26:58.150Z,10.90
2023-02-28T10:27:58.068Z,11.02
2023-02-28T10:28:58.133Z,10.51
2023-02-28T10:29:58.021Z,10.25
2023-02-28T10:30:57.935Z,10.20
2023-02-28T10:31:57.893Z,10.58
2023-02-28T10:32:57.799Z,10.62
2023-02-28T10:33:57.701Z,10.32
2023-02-28T10:34:57.648Z,9.77
2023-02-28T10:35:57.676Z,10.01
2023-02-28T10:36:57.535Z,10.13
2023-02-28T10:37:57.485Z,9.98
2023-02-28T10:38:57.446Z,10.18
2023-02-28T10:39:57.392Z,10.17
2023-02-28T10:40:57.299Z,10.32
2023-02-28T10:41:57.244Z,10.75
2023-02-28T10:42:57.230Z,10.47
2023-02-28T10:43:57.116Z,9.44
2023-02-28T10:44:57.062Z,8.76
2023-02-28T10:45:57.010Z,9.60
2023-02-28T10:46:56.949Z,10.10
2023-02-28T10:47:56.897Z,10.47
2023-02-28T10:48:56.855Z,10.01
2023-02-28T10:49:56.767Z,10.04
2023-02-28T10:50:56.714Z,10.01
2023-02-28T10:51:56.662Z,9.96
2023-02-28T10:52:56.586Z,9.81
2023-02-28T10:54:02.666Z,9.42
2023-02-28T10:54:56.532Z,9.56
2023-02-28T10:55:56.414Z,9.42
2023-02-28T10:56:56.411Z,9.78
2023-02-28T10:57:56.286Z,9.93
2023-02-28T10:58:56.241Z,10.17
2023-02-28T10:59:56.167Z,10.25
2023-02-28T11:00:56.117Z,10.39
2023-02-28T11:01:56.055Z,10.49
2023-02-28T11:02:56.013Z,9.98
2023-02-28T11:03:55.944Z,9.60
2023-02-28T11:04:55.906Z,9.53
2023-02-28T11:05:55.822Z,9.37
2023-02-28T11:06:55.758Z,9.70
2023-02-28T11:07:55.697Z,9.81
2023-02-28T11:08:55.637Z,9.04
2023-02-28T11:09:55.571Z,9.55
2023-02-28T11:10:55.512Z,9.73
2023-02-28T11:11:55.460Z,10.07
2023-02-28T11:12:55.404Z,9.68
2023-02-28T11:13:55.344Z,9.91
2023-02-28T11:14:55.312Z,10.25
2023-02-28T11:15:55.318Z,10.31
2023-02-28T11:16:55.180Z,10.58
2023-02-28T11:17:55.107Z,10.88
2023-02-28T11:18:55.044Z,11.21
2023-02-28T11:19:55.001Z,10.47
2023-02-28T11:20:54.965Z,10.57
2023-02-28T11:21:54.895Z,10.49
2023-02-28T11:22:54.820Z,10.22
2023-02-28T11:23:54.768Z,10.14
2023-02-28T11:24:54.703Z,10.78
2023-02-28T11:25:54.701Z,10.54
2023-02-28T11:26:54.581Z,10.49
2023-02-28T11:27:54.527Z,10.46
2023-02-28T11:28:54.470Z,9.95
2023-02-28T11:29:54.428Z,10.35
2023-02-28T11:30:54.422Z,10.62
2023-02-28T11:31:54.372Z,10.29
2023-02-28T11:32:54.244Z,9.56
2023-02-28T11:33:54.182Z,9.35
2023-02-28T11:34:54.132Z,9.53
2023-02-28T11:35:54.107Z,9.40
2023-02-28T11:36:54.013Z,9.06
2023-02-28T11:37:53.963Z,9.32
2023-02-28T11:38:53.886Z,9.49
2023-02-28T11:39:53.824Z,9.53
2023-02-28T11:40:53.780Z,9.78
2023-02-28T11:41:53.731Z,10.28
2023-02-28T11:42:53.683Z,10.26
2023-02-28T11:43:53.600Z,9.65
2023-02-28T11:44:53.531Z,9.44
2023-02-28T11:45:53.505Z,9.34
2023-02-28T11:46:53.490Z,8.97
2023-02-28T11:47:53.454Z,8.58
2023-02-28T11:48:53.337Z,8.43
2023-02-28T11:49:53.256Z,8.18
2023-02-28T11:50:53.227Z,7.62
2023-02-28T11:51:53.112Z,7.37
2023-02-28T11:52:53.054Z,7.37
2023-02-28T11:53:53.001Z,7.11
2023-02-28T11:54:52.976Z,7.07
2023-02-28T11:55:52.876Z,7.15
2023-02-28T11:56:52.853Z,7.07
2023-02-28T11:57:52.766Z,7.05
2023-02-28T11:58:52.692Z,6.90
2023-02-28T11:59:52.665Z,6.86
2023-02-28T12:00:52.572Z,6.75
2023-02-28T12:01:52.509Z,6.94
2023-02-28T12:02:52.579Z,6.91
2023-02-28T12:03:52.556Z,7.01
2023-02-28T12:04:52.366Z,6.96
2023-02-28T12:05:52.249Z,6.97
2023-02-28T12:06:52.212Z,6.94
2023-02-28T12:07:52.136Z,6.91
2023-02-28T12:08:52.064Z,6.89
2023-02-28T12:09:51.999Z,6.91
2023-02-28T12:10:51.958Z,7.04
2023-02-28T12:11:51.909Z,6.99
2023-02-28T12:12:51.863Z,7.00
2023-02-28T12:13:51.730Z,6.94
2023-02-28T12:14:51.689Z,6.83
2023-02-28T12:15:51.612Z,6.64
2023-02-28T12:16:51.549Z,6.55
2023-02-28T12:17:51.467Z,6.48
2023-02-28T12:18:51.468Z,6.40
2023-02-28T12:19:51.345Z,6.51
2023-02-28T12:20:51.332Z,6.38
2023-02-28T12:21:51.310Z,6.45
2023-02-28T12:22:51.154Z,6.25
2023-02-28T12:23:51.078Z,6.28
2023-02-28T12:24:51.035Z,6.50
2023-02-28T12:25:50.969Z,6.57
2023-02-28T12:26:50.873Z,6.69
2023-02-28T12:27:50.801Z,6.78
2023-02-28T12:28:50.736Z,6.81
2023-02-28T12:29:50.656Z,6.63
2023-02-28T12:30:50.607Z,6.58
2023-02-28T12:31:50.648Z,6.53
2023-02-28T12:32:50.554Z,6.25
2023-02-28T12:33:50.422Z,6.38
2023-02-28T12:34:50.340Z,6.30
2023-02-28T12:35:50.303Z,6.36
2023-02-28T12:36:50.192Z,6.35
2023-02-28T12:37:50.128Z,6.35
2023-02-28T12:38:50.091Z,6.40
2023-02-28T12:39:51.081Z,6.39
2023-02-28T12:40:49.929Z,6.53
2023-02-28T12:41:49.847Z,6.53
2023-02-28T12:42:49.795Z,6.60
2023-02-28T12:43:49.751Z,6.61
2023-02-28T12:44:49.653Z,6.72
2023-02-28T12:45:49.787Z,6.78
2023-02-28T12:46:49.600Z,6.71
2023-02-28T12:47:49.448Z,6.76
2023-02-28T12:48:49.385Z,6.64
2023-02-28T12:49:49.312Z,6.78
2023-02-28T12:50:49.262Z,6.83
2023-02-28T12:51:49.175Z,6.76
2023-02-28T12:52:49.130Z,6.86
2023-02-28T12:53:49.040Z,6.93
2023-02-28T12:54:48.982Z,6.89
2023-02-28T12:55:48.910Z,6.97
2023-02-28T12:56:48.871Z,6.90
2023-02-28T12:57:48.769Z,6.99
2023-02-28T12:58:48.712Z,6.82
2023-02-28T12:59:48.637Z,6.90
2023-02-28T13:00:48.686Z,6.76
2023-02-28T13:01:48.514Z,6.76
2023-02-28T13:02:48.434Z,6.89